Time;durP1;ratioP1;P1;durP2;ratioP2;P2;SDS_P1;SDS_P2;PMS_P1;PMS_P2;Temp;Humidity;BMP_temperature;BMP_pressure;BME280_temperature;BME280_humidity;BME280_pressure;Samples;Min_cycle;Max_cycle;Signal;HPM_P1;HPM_P2
2024/02/08 00:02:28;;;;;;;2.17;2.00;;;;;;;14.18;56.68;97519.75;6994383;28;20775;-80
2024/02/08 00:05:50;;;;;;;1.90;1.80;;;;;;;14.61;56.05;97514.97;6999468;28;20333;-80
2024/02/08 00:09:11;;;;;;;1.77;1.67;;;;;;;14.26;56.61;97516.59;6998227;28;20803;-81
2024/02/08 00:12:33;;;;;;;1.90;1.80;;;;;;;14.29;56.86;97516.91;6988407;28;20264;-81
2024/02/08 00:15:56;;;;;;;1.90;1.80;;;;;;;13.39;59.16;97507.09;6996572;28;20211;-80
2024/02/08 00:19:17;;;;;;;2.00;1.90;;;;;;;14.43;56.55;97512.69;6981588;28;20208;-81
2024/02/08 00:22:38;;;;;;;1.80;1.70;;;;;;;14.65;56.06;97513.38;6994765;28;20235;-80
2024/02/08 00:26:00;;;;;;;1.87;1.73;;;;;;;14.42;56.89;97500.22;6978744;28;20266;-81
2024/02/08 00:29:25;;;;;;;2.00;1.67;;;;;;;14.36;56.77;97495.81;7004492;28;20298;-81
2024/02/08 00:32:48;;;;;;;1.87;1.77;;;;;;;14.52;56.45;97496.75;6999125;28;20696;-80
2024/02/08 00:36:11;;;;;;;2.00;1.90;;;;;;;14.61;56.54;97500.56;7004090;28;20195;-80
2024/02/08 00:39:32;;;;;;;2.13;1.93;;;;;;;14.21;57.14;97490.28;6998209;28;20236;-79
2024/02/08 00:42:54;;;;;;;2.00;1.90;;;;;;;14.45;57.21;97490.72;7003118;28;20229;-81
2024/02/08 00:46:15;;;;;;;1.60;1.50;;;;;;;14.78;55.82;97499.34;7005240;28;20697;-80
2024/02/08 00:49:39;;;;;;;1.90;1.80;;;;;;;14.64;56.40;97492.72;7006080;28;20233;-80
2024/02/08 00:53:03;;;;;;;1.63;1.53;;;;;;;14.96;55.30;97474.47;7005264;28;20238;-81
2024/02/08 00:56:25;;;;;;;1.90;1.80;;;;;;;14.32;56.94;97481.16;6984794;28;20202;-81
2024/02/08 00:59:46;;;;;;;1.33;1.27;;;;;;;14.42;56.72;97488.53;7003770;28;20257;-80
2024/02/08 01:03:08;;;;;;;1.60;1.50;;;;;;;14.50;57.18;97486.16;6999968;28;20222;-80
2024/02/08 01:06:31;;;;;;;1.50;1.50;;;;;;;14.72;56.44;97475.97;6993797;28;20223;-80
2024/02/08 01:09:52;;;;;;;1.40;1.30;;;;;;;14.52;56.27;97456.06;7004988;28;20245;-81
2024/02/08 01:13:17;;;;;;;1.40;1.40;;;;;;;14.39;57.13;97468.19;7004312;28;20269;-80
2024/02/08 01:16:44;;;;;;;4.00;1.30;;;;;;;14.29;57.60;97494.41;7004840;28;20239;-80
2024/02/08 01:20:06;;;;;;;1.60;1.50;;;;;;;14.29;57.84;97478.13;7002053;28;20256;-80
2024/02/08 01:23:29;;;;;;;1.70;1.60;;;;;;;14.38;57.65;97484.69;6997528;28;20276;-80
2024/02/08 01:26:51;;;;;;;1.27;1.27;;;;;;;14.27;57.93;97491.16;7003999;28;20199;-80
2024/02/08 01:30:13;;;;;;;1.30;1.30;;;;;;;14.48;57.31;97474.75;6997088;28;20635;-81
2024/02/08 01:33:37;;;;;;;2.10;1.50;;;;;;;14.41;57.47;97492.31;7001412;28;20227;-81
2024/02/08 01:36:59;;;;;;;1.60;1.50;;;;;;;14.08;58.89;97495.28;7001337;28;20214;-81
2024/02/08 01:40:22;;;;;;;1.67;1.57;;;;;;;14.14;58.62;97481.53;6987650;28;20235;-80
2024/02/08 01:43:44;;;;;;;1.77;1.63;;;;;;;13.90;59.44;97466.69;7000054;28;20216;-80
2024/02/08 01:47:06;;;;;;;1.20;1.20;;;;;;;13.53;60.20;97475.81;6998722;28;20220;-80
2024/02/08 01:50:30;;;;;;;1.60;1.50;;;;;;;14.16;59.01;97487.50;6983425;28;20233;-81
2024/02/08 01:53:51;;;;;;;1.57;1.47;;;;;;;13.68;60.04;97494.94;6992261;28;20221;-81
2024/02/08 01:57:14;;;;;;;1.40;1.40;;;;;;;13.59;60.54;97472.09;7000389;28;20199;-81
2024/02/08 02:00:37;;;;;;;1.37;1.37;;;;;;;13.77;60.09;97482.56;6995550;28;20786;-80
2024/02/08 02:03:59;;;;;;;1.23;1.23;;;;;;;14.06;58.89;97463.03;6999807;28;20214;-79
2024/02/08 02:07:23;;;;;;;1.60;1.50;;;;;;;14.06;58.89;97464.94;7000353;28;20293;-81
2024/02/08 02:10:46;;;;;;;1.60;1.50;;;;;;;14.11;59.13;97454.13;7000543;28;20282;-81
2024/02/08 02:14:10;;;;;;;1.43;1.33;;;;;;;14.47;57.82;97467.69;6997633;28;20370;-80
2024/02/08 02:17:32;;;;;;;1.30;1.30;;;;;;;14.15;58.20;97458.75;6996071;28;20261;-81
2024/02/08 02:20:54;;;;;;;2.00;1.60;;;;;;;13.85;59.63;97463.94;7001075;28;20294;-81
2024/02/08 02:24:24;;;;;;;2.50;1.50;;;;;;;14.42;58.03;97442.44;6983633;28;20206;-81
2024/02/08 02:27:46;;;;;;;1.40;1.30;;;;;;;14.41;57.91;97466.03;7000214;28;20212;-81
2024/02/08 02:31:07;;;;;;;1.47;1.47;;;;;;;13.95;59.25;97455.06;7000279;28;20716;-81
2024/02/08 02:34:30;;;;;;;1.40;1.40;;;;;;;13.88;59.57;97439.06;6998820;28;20296;-81
2024/02/08 02:37:52;;;;;;;1.60;1.50;;;;;;;14.50;58.23;97458.19;6997167;28;20542;-81
2024/02/08 02:41:15;;;;;;;1.30;1.30;;;;;;;14.39;58.05;97451.09;6980233;28;20263;-82
2024/02/08 02:44:36;;;;;;;1.13;1.13;;;;;;;14.12;58.97;97428.66;6996577;28;20240;-81
2024/02/08 02:48:01;;;;;;;1.60;1.30;;;;;;;14.31;58.73;97443.44;6995850;28;20219;-82
2024/02/08 02:51:26;;;;;;;1.50;1.40;;;;;;;14.56;58.01;97435.44;7000252;28;20229;-82
2024/02/08 02:54:48;;;;;;;1.57;1.50;;;;;;;14.72;57.49;97448.03;6985609;28;20685;-81
2024/02/08 02:58:12;;;;;;;1.47;1.40;;;;;;;14.49;57.73;97440.28;7000232;28;20277;-82
2024/02/08 03:01:33;;;;;;;1.27;1.27;;;;;;;14.02;59.42;97447.53;7000007;28;20338;-81
2024/02/08 03:04:55;;;;;;;1.30;1.30;;;;;;;14.65;57.67;97442.03;7000668;28;20214;-81
2024/02/08 03:08:19;;;;;;;1.90;1.30;;;;;;;14.33;58.83;97436.69;7001877;28;20210;-80
2024/02/08 03:11:41;;;;;;;1.10;1.10;;;;;;;14.40;58.18;97436.47;7001843;28;20299;-80
2024/02/08 03:15:09;;;;;;;1.30;1.20;;;;;;;14.10;58.99;97431.63;7000958;28;20592;-81
2024/02/08 03:18:30;;;;;;;1.43;1.40;;;;;;;14.51;58.11;97427.31;6994654;28;20210;-80
2024/02/08 03:21:52;;;;;;;1.30;1.30;;;;;;;14.37;58.77;97412.56;7000190;28;20313;-81
2024/02/08 03:25:16;;;;;;;1.50;1.40;;;;;;;14.51;58.20;97411.84;7001814;28;20203;-81
2024/02/08 03:28:37;;;;;;;1.20;1.20;;;;;;;14.13;58.84;97427.56;7000303;28;20202;-80
2024/02/08 03:32:00;;;;;;;1.47;1.30;;;;;;;14.09;59.18;97423.78;7002177;28;20310;-80
2024/02/08 03:35:25;;;;;;;1.27;1.27;;;;;;;14.33;58.72;97423.13;7010961;28;20223;-81
2024/02/08 03:38:47;;;;;;;1.07;1.07;;;;;;;14.67;57.76;97429.00;6998306;28;20414;-81
2024/02/08 03:42:11;;;;;;;1.10;1.10;;;;;;;14.75;57.50;97423.09;6998906;28;20274;-81
2024/02/08 03:45:34;;;;;;;1.20;1.20;;;;;;;14.82;56.91;97420.94;6997847;28;20201;-81
2024/02/08 03:48:57;;;;;;;1.07;1.07;;;;;;;15.26;55.98;97428.41;6997166;28;20242;-81
2024/02/08 03:52:19;;;;;;;1.23;1.20;;;;;;;15.34;55.67;97432.53;7001705;28;20231;-81
2024/02/08 03:55:43;;;;;;;1.47;1.40;;;;;;;15.18;55.59;97420.81;7003858;28;20222;-81
2024/02/08 03:59:07;;;;;;;1.07;1.07;;;;;;;14.41;58.30;97433.50;7003492;28;20199;-81
2024/02/08 04:02:30;;;;;;;1.30;1.30;;;;;;;14.86;57.43;97431.00;7002307;28;20238;-83
2024/02/08 04:06:03;;;;;;;1.20;1.20;;;;;;;14.92;56.70;97429.94;7003714;28;20578;-81
2024/02/08 04:09:34;;;;;;;1.20;1.20;;;;;;;15.08;56.11;97426.19;6990385;28;20195;-83
2024/02/08 04:56:49;;;;;;;1.40;1.30;;;;;;;14.70;57.30;97404.88;7000811;28;20195;-81
2024/02/08 05:00:16;;;;;;;1.10;1.10;;;;;;;15.13;56.17;97393.63;7002721;28;20731;-81
2024/02/08 05:03:38;;;;;;;1.20;1.20;;;;;;;14.40;59.30;97409.34;6999051;28;20237;-80
2024/02/08 05:06:59;;;;;;;1.20;1.20;;;;;;;14.99;57.69;97394.41;7003606;28;20672;-81
2024/02/08 05:10:21;;;;;;;1.33;1.30;;;;;;;14.85;57.74;97395.97;7003383;28;20300;-81
2024/02/08 05:13:50;;;;;;;2.07;1.30;;;;;;;15.18;57.33;97387.41;7004119;28;20263;-81
2024/02/08 05:17:13;;;;;;;1.20;1.20;;;;;;;15.41;56.48;97390.47;7003802;28;20218;-81
2024/02/08 05:20:36;;;;;;;1.13;1.13;;;;;;;15.24;57.33;97395.28;7003601;28;20222;-81
2024/02/08 05:23:58;;;;;;;1.20;1.20;;;;;;;15.12;57.76;97396.63;7004632;28;20215;-81
2024/02/08 05:27:22;;;;;;;1.30;1.30;;;;;;;14.95;58.01;97380.56;7004078;28;20202;-81
2024/02/08 05:30:44;;;;;;;1.40;1.30;;;;;;;15.52;56.78;97385.84;7004296;28;20239;-81
2024/02/08 05:34:10;;;;;;;1.50;1.50;;;;;;;14.96;58.36;97393.03;7003970;28;20318;-81
2024/02/08 05:37:31;;;;;;;1.40;1.30;;;;;;;15.03;57.90;97403.63;6991966;28;20207;-81
2024/02/08 05:40:53;;;;;;;1.70;1.20;;;;;;;14.94;57.96;97378.09;7000290;28;20223;-82
2024/02/08 05:44:15;;;;;;;2.27;1.80;;;;;;;15.27;57.48;97399.38;7005760;28;20229;-80
2024/02/08 05:47:36;;;;;;;1.30;1.30;;;;;;;15.34;57.52;97394.53;7004866;28;20272;-82
2024/02/08 05:51:02;;;;;;;1.43;1.37;;;;;;;15.26;57.94;97400.44;7003926;28;20251;-81
2024/02/08 05:54:31;;;;;;;1.07;1.07;;;;;;;14.75;59.86;97399.47;7003365;28;20567;-82
2024/02/08 05:57:53;;;;;;;1.50;1.40;;;;;;;13.86;62.48;97397.84;7002716;28;20696;-81
2024/02/08 06:01:19;;;;;;;1.97;1.77;;;;;;;14.66;61.00;97379.38;7001773;28;20365;-81
2024/02/08 06:04:49;;;;;;;1.33;1.33;;;;;;;14.78;59.83;97388.09;7003866;28;20185;-80
2024/02/08 06:08:25;;;;;;;1.27;1.27;;;;;;;14.43;60.89;97390.66;6992871;28;20213;-82
2024/02/08 06:11:49;;;;;;;1.70;1.60;;;;;;;14.74;60.12;97395.13;6977619;28;20234;-81
2024/02/08 06:15:21;;;;;;;1.27;1.27;;;;;;;14.61;60.75;97400.22;7011883;28;20208;-82
2024/02/08 06:18:45;;;;;;;1.83;1.50;;;;;;;14.06;62.38;97405.31;7013604;28;20192;-82
2024/02/08 06:22:19;;;;;;;1.50;1.40;;;;;;;14.26;61.84;97379.19;6998680;28;20306;-82
2024/02/08 06:25:45;;;;;;;1.40;1.30;;;;;;;14.13;61.93;97382.31;6999150;28;20676;-81
2024/02/08 06:29:17;;;;;;;1.27;1.27;;;;;;;13.75;63.79;97406.16;6999040;28;20199;-81
2024/02/08 06:32:44;;;;;;;2.63;1.43;;;;;;;14.31;62.38;97395.47;6998690;28;20629;-81
2024/02/08 06:36:07;;;;;;;1.60;1.17;;;;;;;14.07;61.94;97394.22;6997959;28;20360;-81
2024/02/08 06:39:30;;;;;;;1.27;1.27;;;;;;;13.94;62.98;97402.81;6992096;28;20214;-83
2024/02/08 06:46:47;;;;;;;1.50;1.40;;;;;;;13.59;64.78;97405.22;6982846;28;20208;-80
2024/02/08 07:37:59;;;;;;;2.57;2.10;;;;;;;13.95;64.78;97398.19;6958162;28;20207;-82
2024/02/08 07:41:21;;;;;;;1.70;1.60;;;;;;;13.91;64.61;97378.91;7002834;28;20253;-83
2024/02/08 07:44:48;;;;;;;1.43;1.33;;;;;;;14.23;64.04;97387.03;7003330;28;20211;-81
2024/02/08 07:48:10;;;;;;;3.90;1.87;;;;;;;14.41;63.32;97381.97;7010924;28;20228;-82
2024/02/08 07:51:33;;;;;;;1.37;1.37;;;;;;;13.67;65.46;97387.66;7001470;28;20233;-81
2024/02/08 07:55:20;;;;;;;1.63;1.53;;;;;;;13.94;64.71;97373.00;6980090;28;20320;-81
2024/02/08 07:58:42;;;;;;;1.53;1.43;;;;;;;14.00;64.05;97406.34;7029173;28;20201;-81
2024/02/08 08:02:12;;;;;;;1.90;1.73;;;;;;;14.30;63.87;97401.97;7014230;28;20368;-81
2024/02/08 08:05:33;;;;;;;1.67;1.57;;;;;;;14.27;63.87;97375.38;7022757;28;20223;-82
2024/02/08 08:08:57;;;;;;;2.13;1.30;;;;;;;14.66;62.73;97397.53;7026958;28;20658;-81
2024/02/08 08:12:22;;;;;;;1.37;1.33;;;;;;;14.72;62.48;97394.59;7005084;28;20696;-81
2024/02/08 08:16:22;;;;;;;2.07;1.80;;;;;;;14.74;61.85;97397.03;6998678;28;20224;-81
2024/02/08 08:19:38;;;;;;;1.33;1.27;;;;;;;14.45;63.12;97391.19;6997991;28;20275;-81
2024/02/08 08:23:00;;;;;;;1.30;1.30;;;;;;;14.56;63.12;97394.75;6998496;28;20202;-82
2024/02/08 08:26:37;;;;;;;1.73;1.40;;;;;;;14.53;62.82;97392.59;6999274;28;20211;-81
2024/02/08 08:30:03;;;;;;;1.40;1.30;;;;;;;14.15;63.81;97382.06;7002849;28;20281;-81
2024/02/08 08:33:58;;;;;;;1.60;1.47;;;;;;;14.74;62.27;97362.56;6994936;28;20687;-82
2024/02/08 08:37:39;;;;;;;1.30;1.30;;;;;;;14.72;62.69;97372.06;7007702;28;20221;-81
2024/02/08 08:41:14;;;;;;;2.10;1.90;;;;;;;14.90;61.67;97388.69;7003907;28;20773;-81
2024/02/08 08:44:36;;;;;;;1.40;1.30;;;;;;;15.19;60.56;97378.16;7002147;28;20183;-81
2024/02/08 08:48:00;;;;;;;1.63;1.53;;;;;;;14.52;61.29;97293.34;7002703;28;20223;-79
2024/02/08 08:51:30;;;;;;;1.33;1.30;;;;;;;15.15;60.78;97382.53;6999994;28;20226;-80
2024/02/08 08:55:01;;;;;;;1.03;1.03;;;;;;;14.67;61.78;97366.59;7002224;28;20301;-80
2024/02/08 08:58:27;;;;;;;1.27;1.27;;;;;;;14.36;63.08;97373.81;7015065;28;20216;-80
2024/02/08 09:01:49;;;;;;;1.40;1.40;;;;;;;15.28;60.25;97361.06;7013895;28;20240;-81
2024/02/08 09:05:20;;;;;;;1.20;1.20;;;;;;;15.36;59.79;97363.31;7004036;28;20198;-80
2024/02/08 09:08:45;;;;;;;1.40;1.30;;;;;;;15.07;61.03;97373.00;6986436;28;20210;-81
2024/02/08 09:12:08;;;;;;;1.17;1.17;;;;;;;14.51;62.53;97373.06;6992180;28;20724;-81
2024/02/08 09:15:41;;;;;;;1.40;1.30;;;;;;;14.87;62.06;97367.50;7012695;28;20244;-81
2024/02/08 09:19:06;;;;;;;1.30;1.20;;;;;;;14.71;61.49;97322.44;7016139;28;20195;-80
2024/02/08 09:22:31;;;;;;;1.40;1.30;;;;;;;14.94;61.77;97383.53;7009490;28;20229;-81
2024/02/08 09:25:53;;;;;;;1.10;1.00;;;;;;;15.18;59.77;97344.78;6987805;28;20207;-82
2024/02/08 09:29:15;;;;;;;1.53;1.30;;;;;;;15.56;59.72;97376.06;7003197;28;20199;-82
2024/02/08 09:32:46;;;;;;;2.37;1.70;;;;;;;15.69;59.40;97372.81;7002838;28;20242;-83
2024/02/08 09:36:09;;;;;;;1.17;1.17;;;;;;;15.34;58.72;97340.22;7002055;28;20225;-84
2024/02/08 09:39:53;;;;;;;1.10;1.10;;;;;;;15.45;60.02;97369.00;7013783;28;20200;-84
2024/02/08 09:43:18;;;;;;;1.10;1.10;;;;;;;15.50;59.84;97364.38;7002418;28;20218;-84
2024/02/08 09:46:56;;;;;;;1.90;1.20;;;;;;;15.80;58.40;97353.50;6997792;28;20671;-82
2024/02/08 09:50:21;;;;;;;1.57;1.47;;;;;;;16.50;57.25;97358.00;7010720;28;20365;-82
2024/02/08 09:53:51;;;;;;;1.00;1.00;;;;;;;16.45;57.27;97358.06;7010988;28;20250;-82
2024/02/08 09:57:31;;;;;;;1.63;1.30;;;;;;;16.17;57.49;97359.44;7006976;28;20289;-82
2024/02/08 10:00:57;;;;;;;1.43;1.23;;;;;;;16.60;56.46;97339.75;7010440;28;20738;-86
2024/02/08 10:04:25;;;;;;;1.30;1.30;;;;;;;16.68;56.29;97366.38;7017685;28;20203;-83
2024/02/08 10:08:05;;;;;;;1.53;1.20;;;;;;;16.31;56.01;97352.34;7018108;28;20211;-81
2024/02/08 10:11:36;;;;;;;2.53;1.73;;;;;;;16.16;57.62;97346.13;7005141;28;20249;-84
2024/02/08 10:15:09;;;;;;;1.40;1.30;;;;;;;15.88;57.64;97341.28;6991773;28;20214;-83
2024/02/08 10:18:37;;;;;;;1.30;1.20;;;;;;;16.70;56.38;97330.72;7026382;28;20207;-85
2024/02/08 10:22:00;;;;;;;1.40;1.30;;;;;;;16.69;55.95;97353.59;7007168;28;20219;-82
2024/02/08 10:29:07;;;;;;;1.93;1.83;;;;;;;16.88;56.53;97347.22;7001367;28;20302;-81
2024/02/08 10:32:30;;;;;;;2.00;1.70;;;;;;;16.64;56.03;97348.19;7007249;28;20940;-81
2024/02/08 10:35:53;;;;;;;2.40;1.60;;;;;;;16.42;56.63;97332.22;7000284;28;20280;-84
2024/02/08 10:39:24;;;;;;;1.60;1.50;;;;;;;16.68;54.85;97328.28;7000489;28;20200;-83
2024/02/08 10:42:49;;;;;;;2.00;1.30;;;;;;;16.12;57.20;97326.84;6996835;28;20230;-81
2024/02/08 10:46:16;;;;;;;1.60;1.50;;;;;;;16.27;56.89;97323.25;6973067;28;20201;-81
2024/02/08 10:49:45;;;;;;;1.00;1.00;;;;;;;16.05;57.46;97333.66;6987959;28;20238;-81
2024/02/08 10:53:16;;;;;;;1.33;1.30;;;;;;;15.79;57.95;97322.00;7003181;28;20317;-80
2024/02/08 10:56:44;;;;;;;1.10;1.10;;;;;;;15.96;57.53;97318.97;6999553;28;20215;-82
2024/02/08 11:00:49;;;;;;;1.50;1.40;;;;;;;15.72;58.36;97309.78;7004431;28;20235;-83
2024/02/08 11:03:59;;;;;;;1.50;1.40;;;;;;;16.04;58.06;97293.97;7011323;28;20213;-81
2024/02/08 11:07:33;;;;;;;1.93;1.67;;;;;;;16.11;58.29;97311.59;7016703;28;20238;-83
2024/02/08 11:10:58;;;;;;;1.20;1.20;;;;;;;15.59;59.56;97285.88;6992122;28;20311;-83
2024/02/08 11:14:20;;;;;;;1.10;1.10;;;;;;;15.28;60.94;97311.41;6999847;28;20267;-81
2024/02/08 11:17:45;;;;;;;1.10;1.00;;;;;;;15.57;60.18;97277.22;6997647;28;20227;-81
2024/02/08 11:21:12;;;;;;;1.40;1.30;;;;;;;15.97;59.53;97288.81;7003646;28;20219;-82
2024/02/08 11:24:38;;;;;;;1.40;1.30;;;;;;;16.07;58.72;97288.78;7008000;28;20224;-81
2024/02/08 11:28:09;;;;;;;3.33;1.20;;;;;;;15.94;59.02;97267.63;7002634;28;20342;-81
2024/02/08 11:31:32;;;;;;;1.60;1.50;;;;;;;16.21;58.43;97269.97;7012417;28;20264;-82
2024/02/08 11:35:00;;;;;;;1.37;1.23;;;;;;;16.25;58.10;97249.28;7008742;28;20230;-80
2024/02/08 11:38:30;;;;;;;1.50;1.40;;;;;;;16.42;58.19;97239.72;6996480;28;20199;-80
2024/02/08 11:41:53;;;;;;;1.47;1.30;;;;;;;16.79;56.91;97236.50;7000354;28;20223;-81
2024/02/08 11:45:17;;;;;;;1.10;1.10;;;;;;;16.32;57.25;97228.84;6998827;28;20213;-81
2024/02/08 11:48:42;;;;;;;1.10;1.10;;;;;;;16.30;57.23;97236.50;7013927;28;20245;-81
2024/02/08 11:52:10;;;;;;;0.90;0.90;;;;;;;16.11;57.64;97224.59;7002932;28;20219;-82
2024/02/08 11:55:33;;;;;;;1.20;1.20;;;;;;;16.05;58.01;97214.03;7000133;28;20233;-82
2024/02/08 11:58:58;;;;;;;1.00;1.00;;;;;;;15.40;60.00;97211.50;6987694;28;20295;-82
2024/02/08 12:02:19;;;;;;;1.03;1.03;;;;;;;15.50;59.94;97209.56;6989114;28;20301;-81
2024/02/08 12:05:44;;;;;;;1.20;1.20;;;;;;;16.25;58.67;97201.16;6987173;28;20236;-82
2024/02/08 12:09:22;;;;;;;1.40;1.30;;;;;;;16.62;56.28;97200.69;6997322;28;20212;-83
2024/02/08 12:12:44;;;;;;;2.07;1.53;;;;;;;17.04;55.55;97203.66;7002873;28;20207;-83
2024/02/08 12:16:07;;;;;;;2.67;1.30;;;;;;;15.95;57.45;97203.19;7006765;28;20700;-83
2024/02/08 12:19:29;;;;;;;2.60;1.80;;;;;;;16.65;55.73;97190.06;6999601;28;20290;-83
2024/02/08 12:22:54;;;;;;;1.73;1.43;;;;;;;16.77;55.67;97159.78;7006349;28;20236;-82
2024/02/08 12:26:15;;;;;;;1.70;1.57;;;;;;;17.33;53.83;97175.34;7007216;28;20264;-83
2024/02/08 12:29:41;;;;;;;3.50;1.63;;;;;;;16.52;55.59;97182.53;6998307;28;20290;-84
2024/02/08 12:33:08;;;;;;;1.90;1.50;;;;;;;16.55;55.28;97152.03;7005947;28;20213;-83
2024/02/08 12:36:33;;;;;;;1.73;1.60;;;;;;;16.51;54.76;97120.25;7003727;28;20232;-84
2024/02/08 12:39:55;;;;;;;3.30;1.60;;;;;;;16.83;54.92;97185.84;6996179;28;20221;-84
2024/02/08 12:43:19;;;;;;;5.30;2.00;;;;;;;16.78;54.39;97180.44;7004857;28;20224;-83
2024/02/08 12:46:57;;;;;;;6.43;1.87;;;;;;;16.28;55.73;97178.03;7000596;28;20210;-84
2024/02/08 12:50:23;;;;;;;5.10;2.07;;;;;;;17.00;53.48;97191.72;7015407;28;20225;-82
2024/02/08 12:53:44;;;;;;;6.33;2.07;;;;;;;16.50;53.67;97153.97;7029222;28;20237;-83
2024/02/08 12:57:10;;;;;;;2.70;1.93;;;;;;;16.35;55.04;97178.53;7009893;28;20281;-83
2024/02/08 13:00:33;;;;;;;3.77;1.90;;;;;;;16.86;54.39;97191.53;7021237;28;20678;-84
2024/02/08 13:03:55;;;;;;;2.63;1.97;;;;;;;16.46;54.74;97196.44;7013213;28;20200;-83
2024/02/08 13:07:19;;;;;;;2.60;1.70;;;;;;;16.26;54.47;97189.19;7015723;28;20204;-84
2024/02/08 13:10:41;;;;;;;4.43;1.70;;;;;;;17.06;53.29;97196.03;7019383;28;20292;-82
2024/02/08 13:14:05;;;;;;;6.13;1.97;;;;;;;17.12;52.80;97192.97;7013437;28;20236;-82
2024/02/08 13:17:33;;;;;;;5.00;2.10;;;;;;;16.69;53.08;97185.66;7012288;28;20228;-81
2024/02/08 13:20:54;;;;;;;4.83;2.30;;;;;;;17.18;52.24;97196.47;7008704;28;20237;-82
2024/02/08 13:24:17;;;;;;;4.17;2.17;;;;;;;17.39;51.68;97189.78;7009187;28;20216;-82
2024/02/08 13:27:40;;;;;;;5.60;2.03;;;;;;;17.37;51.41;97172.84;7019729;28;20208;-81
2024/02/08 13:31:05;;;;;;;4.53;2.50;;;;;;;17.27;51.27;97159.34;7018312;28;20232;-82
2024/02/08 13:34:26;;;;;;;4.70;2.63;;;;;;;17.26;51.82;97163.16;7021355;28;20356;-82
2024/02/08 13:37:50;;;;;;;8.00;2.83;;;;;;;17.87;50.04;97151.31;7016497;28;20314;-82
2024/02/08 13:41:12;;;;;;;7.73;2.40;;;;;;;17.62;50.02;97157.09;7023504;28;20236;-82
2024/02/08 13:44:34;;;;;;;4.77;2.40;;;;;;;18.00;49.40;97145.19;7009516;28;20205;-82
2024/02/08 13:47:56;;;;;;;9.77;2.63;;;;;;;17.69;49.08;97113.13;7020765;28;20220;-82
2024/02/08 13:51:18;;;;;;;6.83;3.00;;;;;;;17.23;50.51;97148.19;7015146;28;20603;-82
2024/02/08 13:54:40;;;;;;;5.77;3.30;;;;;;;17.56;49.53;97144.63;7021619;28;20290;-82
2024/02/08 13:58:06;;;;;;;14.00;3.40;;;;;;;17.49;50.23;97146.06;7017084;28;20205;-82
2024/02/08 14:01:27;;;;;;;7.73;3.67;;;;;;;17.53;49.59;97145.22;7019065;28;20698;-82
2024/02/08 14:04:52;;;;;;;8.47;3.47;;;;;;;17.63;49.31;97152.47;7013570;28;20354;-82
2024/02/08 14:08:17;;;;;;;8.37;3.07;;;;;;;17.50;49.40;97147.66;7015721;28;20292;-82
2024/02/08 14:11:40;;;;;;;9.70;3.17;;;;;;;17.93;48.32;97139.25;7011742;28;20226;-81
2024/02/08 14:15:06;;;;;;;12.87;4.73;;;;;;;17.53;49.08;97155.28;7021383;28;20208;-82
2024/02/08 14:18:31;;;;;;;9.30;2.90;;;;;;;17.63;49.07;97153.25;7013406;28;20210;-81
2024/02/08 14:22:06;;;;;;;9.20;3.20;;;;;;;17.55;49.22;97136.72;7002934;28;20262;-81
2024/02/08 14:25:37;;;;;;;11.07;3.40;;;;;;;17.89;48.55;97132.78;7009667;28;20236;-82
2024/02/08 14:28:59;;;;;;;9.87;2.83;;;;;;;17.96;48.43;97146.88;7005574;28;20208;-82
2024/02/08 14:32:22;;;;;;;9.93;3.07;;;;;;;17.57;49.13;97148.16;7006272;28;20614;-83
2024/02/08 14:35:46;;;;;;;10.73;3.47;;;;;;;17.89;48.60;97149.16;7000529;28;20743;-81
2024/02/08 14:39:26;;;;;;;7.00;3.37;;;;;;;17.81;48.77;97141.59;7001151;28;20600;-81
2024/02/08 14:42:48;;;;;;;9.63;3.47;;;;;;;17.90;48.97;97142.56;7000985;28;20291;-81
2024/02/08 14:46:11;;;;;;;11.47;3.70;;;;;;;17.70;48.60;97120.22;7000872;28;20209;-82
2024/02/08 14:49:54;;;;;;;16.13;4.70;;;;;;;17.54;49.02;97137.81;7000968;28;20210;-81
2024/02/08 14:53:16;;;;;;;8.97;3.50;;;;;;;17.95;48.04;97098.06;6980651;28;20584;-82
2024/02/08 14:56:41;;;;;;;9.67;3.37;;;;;;;17.40;49.11;97140.41;6974051;28;20229;-81
2024/02/08 15:00:49;;;;;;;15.80;4.17;;;;;;;17.60;49.33;97140.22;6977633;28;20234;-81
2024/02/08 15:03:49;;;;;;;12.70;4.87;;;;;;;18.00;48.62;97114.38;6974104;28;20205;-81
2024/02/08 15:07:33;;;;;;;9.80;3.27;;;;;;;17.26;49.58;97123.09;6974389;28;20277;-81
2024/02/08 15:11:02;;;;;;;8.73;3.30;;;;;;;17.24;49.90;97100.81;6991378;28;20278;-81
2024/02/08 15:14:28;;;;;;;12.93;3.83;;;;;;;17.98;48.46;97089.31;7001984;28;20295;-81
2024/02/08 15:17:51;;;;;;;11.37;3.73;;;;;;;18.09;47.77;97077.13;7002189;28;20223;-81
2024/02/08 15:21:12;;;;;;;13.67;4.30;;;;;;;17.57;47.89;97063.69;6985691;28;20234;-81
2024/02/08 15:24:46;;;;;;;12.10;3.20;;;;;;;17.42;49.26;97075.56;7001866;28;20245;-81
2024/02/08 15:28:25;;;;;;;11.93;4.10;;;;;;;17.46;48.75;97084.78;7001343;28;20216;-81
2024/02/08 15:31:56;;;;;;;13.67;3.43;;;;;;;16.92;50.46;97069.81;6989093;28;20228;-84
2024/02/08 15:35:26;;;;;;;12.60;3.90;;;;;;;17.20;50.02;97060.81;6994031;28;20215;-82
2024/02/08 15:39:00;;;;;;;13.73;4.20;;;;;;;17.28;49.62;97060.97;7004351;28;20204;-80
2024/02/08 15:42:32;;;;;;;11.23;3.53;;;;;;;17.76;48.12;97045.44;7004673;28;20266;-82
2024/02/08 15:45:54;;;;;;;14.80;4.17;;;;;;;17.54;48.83;97065.06;7008244;28;20186;-85
2024/02/08 15:49:16;;;;;;;10.50;3.80;;;;;;;17.67;48.49;97066.25;7021466;28;20209;-82
2024/02/08 15:52:42;;;;;;;14.07;4.17;;;;;;;17.89;47.42;97061.06;7024903;28;20202;-81
2024/02/08 15:56:04;;;;;;;11.13;3.57;;;;;;;18.12;46.90;97050.13;7014327;28;20224;-81
2024/02/08 15:59:27;;;;;;;15.33;4.73;;;;;;;17.76;48.18;97048.97;7008390;28;20661;-81
2024/02/08 16:02:51;;;;;;;13.13;4.17;;;;;;;17.79;47.78;97058.47;7009071;28;20212;-81
2024/02/08 16:09:50;;;;;;;12.83;3.70;;;;;;;16.86;49.77;97033.66;7007844;28;20227;-81
2024/02/08 16:13:13;;;;;;;11.80;4.10;;;;;;;17.30;49.28;97028.84;7008504;28;20213;-82
2024/02/08 16:16:36;;;;;;;11.07;4.03;;;;;;;17.60;47.83;97014.03;7005591;28;20220;-80
2024/02/08 16:20:05;;;;;;;13.90;5.13;;;;;;;17.54;48.03;97020.66;7006107;28;20293;-81
2024/02/08 16:23:27;;;;;;;18.07;4.83;;;;;;;17.64;47.67;97017.81;7008134;28;20353;-81
2024/02/08 16:26:56;;;;;;;22.83;5.83;;;;;;;17.79;47.39;97018.41;7008199;28;20215;-80
2024/02/08 16:30:28;;;;;;;15.50;3.70;;;;;;;18.08;46.64;97007.34;7008090;28;20243;-81
2024/02/08 16:33:55;;;;;;;14.07;4.40;;;;;;;17.94;47.52;96995.56;7008148;28;20663;-82
2024/02/08 16:37:30;;;;;;;11.37;3.83;;;;;;;17.91;47.71;97002.41;7005413;28;20366;-82
2024/02/08 16:40:52;;;;;;;12.37;4.63;;;;;;;17.96;47.15;96998.78;7007273;28;20289;-80
2024/02/08 16:44:14;;;;;;;12.93;3.93;;;;;;;18.04;46.95;96995.41;7003256;28;20204;-78
2024/02/08 16:47:41;;;;;;;7.73;3.80;;;;;;;17.83;47.46;96985.91;7001668;28;20658;-79
2024/02/08 16:51:16;;;;;;;10.30;4.20;;;;;;;17.77;47.19;96981.63;7005197;28;20265;-81
2024/02/08 16:54:54;;;;;;;15.13;6.23;;;;;;;17.79;47.28;96979.41;7006919;28;20651;-79
2024/02/08 16:58:28;;;;;;;13.67;4.37;;;;;;;17.68;47.50;96977.97;7000927;28;20213;-80
2024/02/08 17:02:03;;;;;;;18.10;5.93;;;;;;;17.48;47.83;96986.41;6997840;28;20229;-80
2024/02/08 17:05:31;;;;;;;12.53;4.37;;;;;;;17.60;47.67;96975.88;7001238;28;20212;-79
2024/02/08 17:09:16;;;;;;;12.90;4.17;;;;;;;17.89;47.10;96980.09;7000145;28;20202;-79
2024/02/08 17:12:56;;;;;;;14.63;3.70;;;;;;;17.44;47.88;96977.19;7000524;28;20204;-80
2024/02/08 17:16:36;;;;;;;15.97;3.97;;;;;;;17.34;48.27;96978.09;7005986;28;20729;-79
2024/02/08 17:20:03;;;;;;;16.20;5.50;;;;;;;17.75;46.96;96962.06;7016373;28;20644;-80
2024/02/08 17:23:27;;;;;;;18.13;5.00;;;;;;;17.43;47.77;96972.84;7001881;28;20209;-81
2024/02/08 17:26:59;;;;;;;15.40;4.53;;;;;;;17.24;48.14;96967.34;7001877;28;20204;-82
2024/02/08 17:30:25;;;;;;;12.63;4.10;;;;;;;17.22;48.09;96968.75;6998347;28;20221;-81
2024/02/08 17:33:49;;;;;;;13.83;4.50;;;;;;;17.41;47.48;96964.16;7002358;28;20194;-81
2024/02/08 17:37:17;;;;;;;10.73;4.70;;;;;;;17.55;47.06;96954.16;7001032;28;20657;-81
2024/02/08 17:40:39;;;;;;;17.33;4.70;;;;;;;17.35;47.02;96947.03;7001345;28;20624;-82
2024/02/08 17:44:04;;;;;;;9.67;4.37;;;;;;;17.72;46.74;96949.00;6997344;28;20246;-80
2024/02/08 17:47:28;;;;;;;12.60;4.23;;;;;;;17.65;46.41;96943.94;7000447;28;20613;-82
2024/02/08 17:50:51;;;;;;;17.57;4.63;;;;;;;17.68;46.29;96937.09;7002892;28;20239;-80